AAL2248 KSAN-KDFW
Flight info
| Callsign | AAL2248 |
|---|---|
| Flight time | 2h 13m |
| Altitude | 35000 |
| Route | ZZOOO4 TGOLD PXR KA24Q ONM CNX KA27W TXO TURKI VKTRY2 |
| Aircraft | A321/M-SDE3FGHIRWY/LB1 |
Departure
| Time | 2026-04-26 18:37 |
|---|---|
| Airport | San Diego International Airport (KSAN) |
Arrival
| Time | 2026-04-26 20:51 |
|---|---|
| Airport | Dallas Fort Worth International Airport (KDFW) |
| Time | Latitude | Longitude | Altitude | Speed | Heading |
|---|---|---|---|---|---|
| 2026-04-26 18:07 | 32.73250 | -117.20163 | 20 ft | 0 kts | 111° |
| 2026-04-26 18:19 | 32.73254 | -117.20177 | 19 ft | 2 kts | 110° |
| 2026-04-26 18:20 | 32.73260 | -117.20195 | 19 ft | 2 kts | 111° |
| 2026-04-26 18:20 | 32.73265 | -117.20211 | 19 ft | 2 kts | 110° |
| 2026-04-26 18:20 | 32.73272 | -117.20227 | 20 ft | 2 kts | 126° |
| 2026-04-26 18:20 | 32.73275 | -117.20232 | 20 ft | 2 kts | 130° |
| 2026-04-26 18:21 | 32.73294 | -117.20252 | 20 ft | 2 kts | 157° |
| 2026-04-26 18:21 | 32.73308 | -117.20256 | 20 ft | 2 kts | 166° |
| 2026-04-26 18:21 | 32.73323 | -117.20261 | 20 ft | 2 kts | 162° |
| 2026-04-26 18:21 | 32.73337 | -117.20267 | 20 ft | 2 kts | 163° |
| 2026-04-26 18:22 | 32.73351 | -117.20271 | 20 ft | 2 kts | 163° |
| 2026-04-26 18:22 | 32.73366 | -117.20277 | 20 ft | 2 kts | 163° |
| 2026-04-26 18:22 | 32.73380 | -117.20280 | 20 ft | 2 kts | 179° |
| 2026-04-26 18:22 | 32.73395 | -117.20279 | 20 ft | 2 kts | 191° |
| 2026-04-26 18:23 | 32.73409 | -117.20274 | 20 ft | 2 kts | 198° |
| 2026-04-26 18:23 | 32.73423 | -117.20269 | 20 ft | 2 kts | 195° |
| 2026-04-26 18:23 | 32.73438 | -117.20264 | 20 ft | 2 kts | 196° |
| 2026-04-26 18:23 | 32.73452 | -117.20259 | 20 ft | 2 kts | 196° |
| 2026-04-26 18:24 | 32.73467 | -117.20254 | 20 ft | 2 kts | 193° |
| 2026-04-26 18:24 | 32.73482 | -117.20255 | 20 ft | 2 kts | 163° |
| 2026-04-26 18:24 | 32.73495 | -117.20262 | 20 ft | 2 kts | 141° |
| 2026-04-26 18:24 | 32.73502 | -117.20270 | 20 ft | 2 kts | 126° |
| 2026-04-26 18:25 | 32.73510 | -117.20292 | 20 ft | 2 kts | 102° |
| 2026-04-26 18:25 | 32.73512 | -117.20303 | 20 ft | 1 kts | 107° |
| 2026-04-26 18:25 | 32.73512 | -117.20304 | 20 ft | 0 kts | 107° |
| 2026-04-26 18:27 | 32.73510 | -117.20292 | 20 ft | 6 kts | 103° |
| 2026-04-26 18:27 | 32.73528 | -117.20234 | 20 ft | 8 kts | 49° |
| 2026-04-26 18:27 | 32.73543 | -117.20163 | 20 ft | 10 kts | 105° |
| 2026-04-26 18:27 | 32.73515 | -117.20047 | 20 ft | 19 kts | 106° |
| 2026-04-26 18:28 | 32.73469 | -117.19859 | 20 ft | 27 kts | 106° |
| 2026-04-26 18:28 | 32.73413 | -117.19628 | 22 ft | 28 kts | 106° |
| 2026-04-26 18:28 | 32.73359 | -117.19405 | 23 ft | 27 kts | 106° |
| 2026-04-26 18:28 | 32.73307 | -117.19192 | 23 ft | 26 kts | 106° |
| 2026-04-26 18:29 | 32.73257 | -117.18982 | 22 ft | 26 kts | 105° |
| 2026-04-26 18:29 | 32.73207 | -117.18777 | 21 ft | 25 kts | 106° |
| 2026-04-26 18:29 | 32.73158 | -117.18575 | 20 ft | 25 kts | 106° |
| 2026-04-26 18:29 | 32.73110 | -117.18378 | 20 ft | 24 kts | 106° |
| 2026-04-26 18:30 | 32.73063 | -117.18184 | 20 ft | 24 kts | 106° |
| 2026-04-26 18:30 | 32.73017 | -117.17995 | 21 ft | 23 kts | 106° |
| 2026-04-26 18:30 | 32.72974 | -117.17818 | 23 ft | 18 kts | 106° |
| 2026-04-26 18:30 | 32.72952 | -117.17728 | 25 ft | 6 kts | 106° |
| 2026-04-26 18:31 | 32.72952 | -117.17683 | 25 ft | 0 kts | 73° |
| 2026-04-26 18:31 | 32.72952 | -117.17682 | 25 ft | 0 kts | 73° |
| 2026-04-26 18:34 | 32.72955 | -117.17670 | 26 ft | 6 kts | 72° |
| 2026-04-26 18:35 | 32.72980 | -117.17603 | 26 ft | 9 kts | 41° |
| 2026-04-26 18:35 | 32.73027 | -117.17612 | 27 ft | 7 kts | 295° |
| 2026-04-26 18:35 | 32.73031 | -117.17627 | 27 ft | 0 kts | 286° |
| 2026-04-26 18:36 | 32.73047 | -117.17693 | 26 ft | 33 kts | 286° |
| 2026-04-26 18:36 | 32.73190 | -117.18279 | 21 ft | 109 kts | 286° |
| 2026-04-26 18:37 | 32.73449 | -117.19353 | 166 ft | 152 kts | 286° |
| 2026-04-26 18:37 | 32.73732 | -117.20542 | 828 ft | 152 kts | 286° |
| 2026-04-26 18:37 | 32.74020 | -117.21731 | 1442 ft | 150 kts | 285° |
| 2026-04-26 18:37 | 32.74326 | -117.22985 | 1717 ft | 163 kts | 285° |
| 2026-04-26 18:38 | 32.74651 | -117.24319 | 1982 ft | 177 kts | 286° |
| 2026-04-26 18:38 | 32.75004 | -117.25777 | 2279 ft | 191 kts | 286° |
| 2026-04-26 18:38 | 32.75387 | -117.27357 | 2567 ft | 208 kts | 286° |
| 2026-04-26 18:38 | 32.75807 | -117.29092 | 2884 ft | 226 kts | 286° |
| 2026-04-26 18:39 | 32.76247 | -117.30909 | 3573 ft | 229 kts | 286° |
| 2026-04-26 18:39 | 32.76525 | -117.32734 | 4297 ft | 231 kts | 267° |
| 2026-04-26 18:39 | 32.76030 | -117.34545 | 5008 ft | 236 kts | 239° |
| 2026-04-26 18:39 | 32.74831 | -117.35871 | 5726 ft | 245 kts | 212° |
| 2026-04-26 18:40 | 32.73163 | -117.36364 | 6445 ft | 256 kts | 182° |
| 2026-04-26 18:40 | 32.71445 | -117.35773 | 7124 ft | 269 kts | 150° |
| 2026-04-26 18:40 | 32.70089 | -117.34229 | 7810 ft | 276 kts | 132° |
| 2026-04-26 18:40 | 32.68837 | -117.32457 | 8495 ft | 280 kts | 132° |
| 2026-04-26 18:41 | 32.67580 | -117.30707 | 9170 ft | 284 kts | 133° |
| 2026-04-26 18:41 | 32.66283 | -117.28916 | 9822 ft | 288 kts | 133° |
| 2026-04-26 18:41 | 32.64990 | -117.27129 | 10452 ft | 292 kts | 133° |
| 2026-04-26 18:41 | 32.63702 | -117.25223 | 11073 ft | 297 kts | 124° |
| 2026-04-26 18:42 | 32.62915 | -117.22961 | 11606 ft | 306 kts | 102° |
| 2026-04-26 18:42 | 32.62615 | -117.20386 | 11926 ft | 321 kts | 95° |
| 2026-04-26 18:42 | 32.62432 | -117.17691 | 12218 ft | 337 kts | 94° |
| 2026-04-26 18:42 | 32.62237 | -117.14876 | 12498 ft | 353 kts | 95° |
| 2026-04-26 18:43 | 32.62076 | -117.11906 | 12772 ft | 368 kts | 88° |
| 2026-04-26 18:43 | 32.62404 | -117.08846 | 13036 ft | 382 kts | 74° |
| 2026-04-26 18:43 | 32.63263 | -117.05830 | 13394 ft | 391 kts | 66° |
| 2026-04-26 18:43 | 32.64293 | -117.02809 | 13942 ft | 396 kts | 65° |
| 2026-04-26 18:44 | 32.65340 | -116.99768 | 14512 ft | 401 kts | 65° |
| 2026-04-26 18:44 | 32.66234 | -116.96652 | 15052 ft | 407 kts | 74° |
| 2026-04-26 18:44 | 32.66743 | -116.93307 | 15619 ft | 412 kts | 84° |
| 2026-04-26 18:44 | 32.66895 | -116.89950 | 16162 ft | 415 kts | 89° |
| 2026-04-26 18:45 | 32.66940 | -116.86494 | 16691 ft | 419 kts | 90° |
| 2026-04-26 18:45 | 32.66977 | -116.83022 | 17205 ft | 424 kts | 90° |
| 2026-04-26 18:45 | 32.67033 | -116.79537 | 17702 ft | 428 kts | 89° |
| 2026-04-26 18:45 | 32.67106 | -116.75996 | 18227 ft | 431 kts | 90° |
| 2026-04-26 18:46 | 32.67097 | -116.72446 | 18736 ft | 435 kts | 92° |
| 2026-04-26 18:46 | 32.67046 | -116.68839 | 19242 ft | 438 kts | 92° |
| 2026-04-26 18:46 | 32.66985 | -116.65253 | 19693 ft | 442 kts | 92° |
| 2026-04-26 18:46 | 32.66919 | -116.61578 | 20174 ft | 446 kts | 92° |
| 2026-04-26 18:47 | 32.66854 | -116.57870 | 20632 ft | 450 kts | 93° |
| 2026-04-26 18:47 | 32.66791 | -116.54158 | 21056 ft | 455 kts | 92° |
| 2026-04-26 18:47 | 32.66728 | -116.50404 | 21480 ft | 459 kts | 93° |
| 2026-04-26 18:47 | 32.66662 | -116.46635 | 21965 ft | 460 kts | 93° |
| 2026-04-26 18:48 | 32.66668 | -116.42812 | 22458 ft | 463 kts | 90° |
| 2026-04-26 18:48 | 32.66878 | -116.39040 | 22908 ft | 466 kts | 85° |
| 2026-04-26 18:48 | 32.67219 | -116.35162 | 23318 ft | 470 kts | 84° |
| 2026-04-26 18:48 | 32.67585 | -116.31323 | 23650 ft | 474 kts | 85° |
| 2026-04-26 18:49 | 32.67958 | -116.27410 | 23949 ft | 479 kts | 86° |
| 2026-04-26 18:49 | 32.68321 | -116.23496 | 24289 ft | 482 kts | 85° |
| 2026-04-26 18:49 | 32.68680 | -116.19527 | 24657 ft | 485 kts | 86° |
| 2026-04-26 18:49 | 32.69041 | -116.15544 | 24963 ft | 489 kts | 86° |
| 2026-04-26 18:50 | 32.69399 | -116.11482 | 25252 ft | 494 kts | 86° |
| 2026-04-26 18:50 | 32.69757 | -116.07436 | 25565 ft | 497 kts | 86° |
| 2026-04-26 18:50 | 32.70119 | -116.03331 | 25877 ft | 501 kts | 86° |
| 2026-04-26 18:50 | 32.70493 | -115.99230 | 26185 ft | 504 kts | 86° |
| 2026-04-26 18:51 | 32.70882 | -115.95091 | 26480 ft | 508 kts | 86° |
| 2026-04-26 18:51 | 32.71272 | -115.90923 | 26785 ft | 511 kts | 86° |
| 2026-04-26 18:51 | 32.71655 | -115.86751 | 27046 ft | 515 kts | 86° |
| 2026-04-26 18:51 | 32.72046 | -115.82516 | 27338 ft | 518 kts | 86° |
| 2026-04-26 18:52 | 32.72439 | -115.78231 | 27621 ft | 521 kts | 86° |
| 2026-04-26 18:52 | 32.72693 | -115.75417 | 27780 ft | 524 kts | 86° |
| 2026-04-26 18:52 | 32.73220 | -115.69637 | 28151 ft | 529 kts | 87° |
| 2026-04-26 18:52 | 32.73608 | -115.65302 | 28432 ft | 531 kts | 87° |
| 2026-04-26 18:53 | 32.73997 | -115.60942 | 28678 ft | 535 kts | 86° |
| 2026-04-26 18:53 | 32.74393 | -115.56535 | 28950 ft | 537 kts | 86° |
| 2026-04-26 18:53 | 32.74776 | -115.52161 | 29190 ft | 540 kts | 88° |
| 2026-04-26 18:53 | 32.75011 | -115.47690 | 29449 ft | 541 kts | 91° |
| 2026-04-26 18:54 | 32.75142 | -115.43222 | 29718 ft | 543 kts | 92° |
| 2026-04-26 18:54 | 32.75238 | -115.38784 | 30094 ft | 542 kts | 93° |
| 2026-04-26 18:54 | 32.75326 | -115.34319 | 30498 ft | 541 kts | 93° |
| 2026-04-26 18:54 | 32.75420 | -115.29861 | 30861 ft | 540 kts | 93° |
| 2026-04-26 18:55 | 32.75515 | -115.25412 | 31212 ft | 539 kts | 93° |
| 2026-04-26 18:55 | 32.75614 | -115.20979 | 31545 ft | 538 kts | 93° |
| 2026-04-26 18:55 | 32.75711 | -115.16573 | 31897 ft | 537 kts | 94° |
| 2026-04-26 18:55 | 32.75809 | -115.12112 | 32236 ft | 536 kts | 94° |
| 2026-04-26 18:56 | 32.75902 | -115.07703 | 32552 ft | 535 kts | 94° |
| 2026-04-26 18:56 | 32.75996 | -115.03334 | 32850 ft | 535 kts | 94° |
| 2026-04-26 18:56 | 32.76086 | -114.98890 | 33154 ft | 535 kts | 94° |
| 2026-04-26 18:56 | 32.76176 | -114.94507 | 33394 ft | 536 kts | 94° |
| 2026-04-26 18:57 | 32.76266 | -114.90085 | 33637 ft | 536 kts | 94° |
| 2026-04-26 18:57 | 32.76295 | -114.88617 | 33714 ft | 537 kts | 94° |
| 2026-04-26 18:57 | 32.76438 | -114.81233 | 34050 ft | 538 kts | 94° |
| 2026-04-26 18:57 | 32.76524 | -114.76823 | 34236 ft | 539 kts | 94° |
| 2026-04-26 18:58 | 32.76604 | -114.72351 | 34426 ft | 540 kts | 94° |
| 2026-04-26 18:58 | 32.76682 | -114.67927 | 34576 ft | 543 kts | 94° |
| 2026-04-26 18:58 | 32.76763 | -114.63459 | 34765 ft | 543 kts | 94° |
| 2026-04-26 18:58 | 32.76843 | -114.58964 | 34900 ft | 545 kts | 94° |
| 2026-04-26 18:59 | 32.76978 | -114.49995 | 34913 ft | 546 kts | 94° |
| 2026-04-26 18:59 | 32.77097 | -114.41020 | 34920 ft | 546 kts | 94° |
| 2026-04-26 19:00 | 32.77210 | -114.31999 | 34917 ft | 546 kts | 95° |
| 2026-04-26 19:00 | 32.77321 | -114.23020 | 34916 ft | 545 kts | 94° |
| 2026-04-26 19:01 | 32.77421 | -114.14041 | 34910 ft | 546 kts | 95° |
| 2026-04-26 19:01 | 32.77517 | -114.05006 | 34900 ft | 545 kts | 95° |
| 2026-04-26 19:02 | 32.77826 | -113.96062 | 34904 ft | 550 kts | 89° |
| 2026-04-26 19:02 | 32.78536 | -113.90056 | 34901 ft | 552 kts | 83° |
| 2026-04-26 19:03 | 32.80342 | -113.78104 | 34920 ft | 553 kts | 83° |
| 2026-04-26 19:03 | 32.81852 | -113.69152 | 34910 ft | 554 kts | 77° |
| 2026-04-26 19:04 | 32.84253 | -113.60454 | 34925 ft | 556 kts | 69° |
| 2026-04-26 19:04 | 32.87058 | -113.51899 | 34922 ft | 556 kts | 69° |
| 2026-04-26 19:05 | 32.91226 | -113.39066 | 34918 ft | 556 kts | 69° |
| 2026-04-26 19:06 | 32.93977 | -113.30459 | 34916 ft | 555 kts | 70° |
| 2026-04-26 19:06 | 32.96699 | -113.21881 | 34917 ft | 556 kts | 70° |
| 2026-04-26 19:07 | 32.99435 | -113.13250 | 34920 ft | 556 kts | 70° |
| 2026-04-26 19:07 | 33.02160 | -113.04628 | 34918 ft | 556 kts | 71° |
| 2026-04-26 19:08 | 33.04861 | -112.96039 | 34911 ft | 556 kts | 70° |
| 2026-04-26 19:08 | 33.07580 | -112.87408 | 34909 ft | 556 kts | 70° |
| 2026-04-26 19:09 | 33.10274 | -112.78789 | 34904 ft | 556 kts | 70° |
| 2026-04-26 19:09 | 33.13117 | -112.70246 | 34903 ft | 557 kts | 65° |
| 2026-04-26 19:10 | 33.16528 | -112.61916 | 34902 ft | 557 kts | 62° |
| 2026-04-26 19:10 | 33.20025 | -112.53660 | 34912 ft | 557 kts | 62° |
| 2026-04-26 19:11 | 33.23456 | -112.45441 | 34918 ft | 557 kts | 62° |
| 2026-04-26 19:11 | 33.26875 | -112.37163 | 34932 ft | 557 kts | 62° |
| 2026-04-26 19:12 | 33.30304 | -112.28834 | 34943 ft | 556 kts | 63° |
| 2026-04-26 19:12 | 33.33704 | -112.20557 | 34949 ft | 557 kts | 63° |
| 2026-04-26 19:13 | 33.37102 | -112.12266 | 34942 ft | 557 kts | 63° |
| 2026-04-26 19:13 | 33.40506 | -112.03940 | 34934 ft | 558 kts | 63° |
| 2026-04-26 19:14 | 33.43789 | -111.95476 | 34928 ft | 558 kts | 68° |
| 2026-04-26 19:14 | 33.46447 | -111.86808 | 34930 ft | 558 kts | 71° |
| 2026-04-26 19:15 | 33.48570 | -111.79505 | 34929 ft | 557 kts | 71° |
| 2026-04-26 19:15 | 33.51561 | -111.69251 | 34930 ft | 557 kts | 71° |
| 2026-04-26 19:16 | 33.54023 | -111.60878 | 34934 ft | 557 kts | 71° |
| 2026-04-26 19:16 | 33.56589 | -111.52124 | 34941 ft | 558 kts | 71° |
| 2026-04-26 19:17 | 33.59175 | -111.43313 | 34948 ft | 558 kts | 71° |
| 2026-04-26 19:17 | 33.61737 | -111.34534 | 34958 ft | 558 kts | 72° |
| 2026-04-26 19:18 | 33.64280 | -111.25771 | 34962 ft | 558 kts | 71° |
| 2026-04-26 19:18 | 33.66832 | -111.16986 | 34972 ft | 558 kts | 72° |
| 2026-04-26 19:19 | 33.69376 | -111.08190 | 34980 ft | 558 kts | 72° |
| 2026-04-26 19:19 | 33.71913 | -110.99387 | 34980 ft | 559 kts | 71° |
| 2026-04-26 19:20 | 33.74446 | -110.90564 | 34985 ft | 559 kts | 71° |
| 2026-04-26 19:20 | 33.76968 | -110.81762 | 34994 ft | 558 kts | 71° |
| 2026-04-26 19:21 | 33.79471 | -110.73006 | 34999 ft | 558 kts | 71° |
| 2026-04-26 19:21 | 33.81570 | -110.65659 | 35000 ft | 557 kts | 72° |
| 2026-04-26 19:22 | 33.84478 | -110.55396 | 35005 ft | 557 kts | 71° |
| 2026-04-26 19:22 | 33.86975 | -110.46571 | 35009 ft | 557 kts | 71° |
| 2026-04-26 19:23 | 33.89453 | -110.37788 | 35010 ft | 557 kts | 72° |
| 2026-04-26 19:23 | 33.91924 | -110.29001 | 35013 ft | 555 kts | 72° |
| 2026-04-26 19:24 | 33.94386 | -110.20212 | 35017 ft | 555 kts | 72° |
| 2026-04-26 19:24 | 33.98066 | -110.07015 | 35013 ft | 555 kts | 72° |
| 2026-04-26 19:25 | 33.99590 | -110.01083 | 35004 ft | 555 kts | 77° |
| 2026-04-26 19:25 | 34.01433 | -109.89010 | 35013 ft | 550 kts | 85° |
| 2026-04-26 19:26 | 34.02450 | -109.79948 | 35006 ft | 550 kts | 85° |
| 2026-04-26 19:26 | 34.03478 | -109.70868 | 35011 ft | 550 kts | 84° |
| 2026-04-26 19:27 | 34.04539 | -109.61755 | 35005 ft | 550 kts | 84° |
| 2026-04-26 19:27 | 34.05595 | -109.52663 | 35004 ft | 549 kts | 84° |
| 2026-04-26 19:28 | 34.06653 | -109.43546 | 35016 ft | 549 kts | 84° |
| 2026-04-26 19:28 | 34.07696 | -109.34480 | 35048 ft | 548 kts | 84° |
| 2026-04-26 19:29 | 34.08734 | -109.25375 | 35054 ft | 550 kts | 84° |
| 2026-04-26 19:29 | 34.09769 | -109.16273 | 35047 ft | 548 kts | 84° |
| 2026-04-26 19:30 | 34.10783 | -109.07206 | 35036 ft | 548 kts | 84° |
| 2026-04-26 19:30 | 34.11460 | -109.01168 | 35028 ft | 547 kts | 84° |
| 2026-04-26 19:31 | 34.12802 | -108.89059 | 35035 ft | 548 kts | 84° |
| 2026-04-26 19:31 | 34.13800 | -108.80026 | 35035 ft | 547 kts | 84° |
| 2026-04-26 19:32 | 34.14795 | -108.70925 | 35043 ft | 547 kts | 84° |
| 2026-04-26 19:32 | 34.15783 | -108.61873 | 35047 ft | 546 kts | 85° |
| 2026-04-26 19:33 | 34.16756 | -108.52824 | 35050 ft | 547 kts | 85° |
| 2026-04-26 19:33 | 34.17731 | -108.43697 | 35051 ft | 547 kts | 84° |
| 2026-04-26 19:34 | 34.18697 | -108.34658 | 35050 ft | 547 kts | 86° |
| 2026-04-26 19:34 | 34.19657 | -108.25580 | 35052 ft | 546 kts | 85° |
| 2026-04-26 19:35 | 34.20615 | -108.16473 | 35054 ft | 546 kts | 86° |
| 2026-04-26 19:35 | 34.21557 | -108.07426 | 35049 ft | 546 kts | 86° |
| 2026-04-26 19:36 | 34.22180 | -108.01417 | 35044 ft | 546 kts | 85° |
| 2026-04-26 19:36 | 34.23422 | -107.89289 | 35041 ft | 546 kts | 85° |
| 2026-04-26 19:37 | 34.24347 | -107.80239 | 35042 ft | 545 kts | 86° |
| 2026-04-26 19:37 | 34.25264 | -107.71161 | 35041 ft | 545 kts | 86° |
| 2026-04-26 19:38 | 34.26169 | -107.62115 | 35043 ft | 545 kts | 85° |
| 2026-04-26 19:38 | 34.27077 | -107.53059 | 35042 ft | 543 kts | 86° |
| 2026-04-26 19:39 | 34.27970 | -107.44014 | 35036 ft | 543 kts | 85° |
| 2026-04-26 19:39 | 34.28853 | -107.34978 | 35027 ft | 543 kts | 87° |
| 2026-04-26 19:40 | 34.29736 | -107.25956 | 35012 ft | 542 kts | 87° |
| 2026-04-26 19:40 | 34.30597 | -107.16965 | 35001 ft | 541 kts | 86° |
| 2026-04-26 19:41 | 34.31466 | -107.07945 | 34982 ft | 539 kts | 87° |
| 2026-04-26 19:41 | 34.32031 | -107.01966 | 34982 ft | 540 kts | 86° |
| 2026-04-26 19:42 | 34.33161 | -106.89969 | 34963 ft | 541 kts | 86° |
| 2026-04-26 19:42 | 34.33930 | -106.80991 | 34955 ft | 539 kts | 90° |
| 2026-04-26 19:43 | 34.34244 | -106.71962 | 34957 ft | 538 kts | 91° |
| 2026-04-26 19:43 | 34.34467 | -106.62932 | 34967 ft | 538 kts | 92° |
| 2026-04-26 19:44 | 34.34700 | -106.53956 | 34977 ft | 537 kts | 92° |
| 2026-04-26 19:44 | 34.34932 | -106.44926 | 34991 ft | 539 kts | 91° |
| 2026-04-26 19:45 | 34.35169 | -106.35934 | 34999 ft | 538 kts | 91° |
| 2026-04-26 19:45 | 34.35397 | -106.26892 | 35006 ft | 538 kts | 92° |
| 2026-04-26 19:46 | 34.35615 | -106.17842 | 35012 ft | 540 kts | 92° |
| 2026-04-26 19:46 | 34.35831 | -106.08749 | 35014 ft | 540 kts | 92° |
| 2026-04-26 19:47 | 34.35969 | -106.02712 | 35012 ft | 540 kts | 92° |
| 2026-04-26 19:47 | 34.36240 | -105.90665 | 35021 ft | 540 kts | 92° |
| 2026-04-26 19:48 | 34.36434 | -105.81593 | 35023 ft | 538 kts | 92° |
| 2026-04-26 19:48 | 34.36619 | -105.72636 | 35016 ft | 536 kts | 92° |
| 2026-04-26 19:49 | 34.37033 | -105.63628 | 35094 ft | 538 kts | 88° |
| 2026-04-26 19:49 | 34.37808 | -105.54658 | 35015 ft | 536 kts | 86° |
| 2026-04-26 19:50 | 34.38593 | -105.45745 | 34989 ft | 535 kts | 87° |
| 2026-04-26 19:50 | 34.39350 | -105.36811 | 34989 ft | 535 kts | 87° |
| 2026-04-26 19:51 | 34.40095 | -105.27908 | 34977 ft | 533 kts | 88° |
| 2026-04-26 19:51 | 34.40830 | -105.18990 | 34972 ft | 532 kts | 87° |
| 2026-04-26 19:52 | 34.41555 | -105.10138 | 34967 ft | 531 kts | 87° |
| 2026-04-26 19:52 | 34.42270 | -105.01291 | 34951 ft | 530 kts | 88° |
| 2026-04-26 19:53 | 34.42983 | -104.92441 | 34948 ft | 529 kts | 88° |
| 2026-04-26 19:53 | 34.43688 | -104.83567 | 34952 ft | 530 kts | 88° |
| 2026-04-26 19:54 | 34.44379 | -104.74736 | 34954 ft | 531 kts | 88° |
| 2026-04-26 19:54 | 34.45078 | -104.65823 | 34948 ft | 531 kts | 88° |
| 2026-04-26 19:55 | 34.45762 | -104.56964 | 34939 ft | 532 kts | 88° |
| 2026-04-26 19:55 | 34.46450 | -104.48023 | 34931 ft | 532 kts | 87° |
| 2026-04-26 19:56 | 34.47123 | -104.39151 | 34926 ft | 532 kts | 87° |
| 2026-04-26 19:56 | 34.47795 | -104.30249 | 34915 ft | 532 kts | 88° |
| 2026-04-26 19:57 | 34.48461 | -104.21310 | 34905 ft | 533 kts | 88° |
| 2026-04-26 19:57 | 34.49116 | -104.12371 | 34909 ft | 532 kts | 88° |
| 2026-04-26 19:58 | 34.49762 | -104.03475 | 34905 ft | 533 kts | 88° |
| 2026-04-26 19:58 | 34.50065 | -103.94550 | 34913 ft | 530 kts | 94° |
| 2026-04-26 19:59 | 34.50045 | -103.85594 | 34912 ft | 531 kts | 94° |
| 2026-04-26 19:59 | 34.50012 | -103.76688 | 34910 ft | 531 kts | 94° |
| 2026-04-26 20:00 | 34.49990 | -103.67794 | 34918 ft | 530 kts | 94° |
| 2026-04-26 20:00 | 34.49966 | -103.58858 | 34913 ft | 530 kts | 94° |
| 2026-04-26 20:01 | 34.49938 | -103.50010 | 34905 ft | 530 kts | 93° |
| 2026-04-26 20:01 | 34.49901 | -103.41089 | 34904 ft | 530 kts | 93° |
| 2026-04-26 20:02 | 34.49861 | -103.32147 | 34893 ft | 530 kts | 94° |
| 2026-04-26 20:02 | 34.49832 | -103.26244 | 34893 ft | 530 kts | 94° |
| 2026-04-26 20:03 | 34.49759 | -103.14362 | 34891 ft | 530 kts | 94° |
| 2026-04-26 20:03 | 34.49696 | -103.05440 | 34890 ft | 530 kts | 94° |
| 2026-04-26 20:04 | 34.49631 | -102.96576 | 34891 ft | 529 kts | 94° |
| 2026-04-26 20:04 | 34.49555 | -102.87630 | 34892 ft | 529 kts | 94° |
| 2026-04-26 20:05 | 34.49048 | -102.78816 | 34895 ft | 525 kts | 101° |
| 2026-04-26 20:05 | 34.48140 | -102.70062 | 34895 ft | 524 kts | 102° |
| 2026-04-26 20:06 | 34.47206 | -102.61345 | 34890 ft | 524 kts | 102° |
| 2026-04-26 20:06 | 34.46286 | -102.52602 | 34885 ft | 525 kts | 101° |
| 2026-04-26 20:07 | 34.45373 | -102.43893 | 34886 ft | 525 kts | 101° |
| 2026-04-26 20:07 | 34.44450 | -102.35123 | 34889 ft | 524 kts | 101° |
| 2026-04-26 20:08 | 34.43532 | -102.26459 | 34891 ft | 523 kts | 101° |
| 2026-04-26 20:08 | 34.42605 | -102.17754 | 34883 ft | 522 kts | 102° |
| 2026-04-26 20:09 | 34.41665 | -102.09058 | 34893 ft | 522 kts | 101° |
| 2026-04-26 20:09 | 34.40724 | -102.00371 | 34885 ft | 522 kts | 101° |
| 2026-04-26 20:10 | 34.39774 | -101.91657 | 34874 ft | 522 kts | 101° |
| 2026-04-26 20:10 | 34.38823 | -101.83000 | 34871 ft | 522 kts | 101° |
| 2026-04-26 20:11 | 34.37857 | -101.74264 | 34867 ft | 522 kts | 101° |
| 2026-04-26 20:12 | 34.36406 | -101.61257 | 34852 ft | 523 kts | 101° |
| 2026-04-26 20:12 | 34.35433 | -101.52567 | 34854 ft | 523 kts | 101° |
| 2026-04-26 20:13 | 34.34448 | -101.43889 | 34854 ft | 524 kts | 101° |
| 2026-04-26 20:13 | 34.33454 | -101.35139 | 34854 ft | 524 kts | 101° |
| 2026-04-26 20:14 | 34.32457 | -101.26426 | 34853 ft | 524 kts | 101° |
| 2026-04-26 20:14 | 34.31454 | -101.17730 | 34845 ft | 524 kts | 102° |
| 2026-04-26 20:15 | 34.30445 | -101.09030 | 34836 ft | 524 kts | 101° |
| 2026-04-26 20:15 | 34.29419 | -101.00278 | 34816 ft | 525 kts | 101° |
| 2026-04-26 20:16 | 34.28404 | -100.91590 | 34810 ft | 524 kts | 102° |
| 2026-04-26 20:16 | 34.27372 | -100.82883 | 34795 ft | 525 kts | 101° |
| 2026-04-26 20:17 | 34.26344 | -100.74223 | 34790 ft | 523 kts | 101° |
| 2026-04-26 20:17 | 34.25303 | -100.65519 | 34785 ft | 523 kts | 101° |
| 2026-04-26 20:18 | 34.24260 | -100.56842 | 34774 ft | 523 kts | 101° |
| 2026-04-26 20:18 | 34.23213 | -100.48202 | 34767 ft | 523 kts | 101° |
| 2026-04-26 20:19 | 34.22154 | -100.39517 | 34762 ft | 522 kts | 100° |
| 2026-04-26 20:19 | 34.21090 | -100.30891 | 34750 ft | 520 kts | 102° |
| 2026-04-26 20:20 | 34.19499 | -100.22453 | 34749 ft | 516 kts | 111° |
| 2026-04-26 20:20 | 34.17138 | -100.14314 | 34735 ft | 512 kts | 115° |
| 2026-04-26 20:21 | 34.14655 | -100.06265 | 34730 ft | 512 kts | 114° |
| 2026-04-26 20:21 | 34.12209 | -99.98247 | 34738 ft | 511 kts | 114° |
| 2026-04-26 20:22 | 34.09758 | -99.90175 | 34745 ft | 511 kts | 114° |
| 2026-04-26 20:22 | 34.07315 | -99.82147 | 34750 ft | 512 kts | 114° |
| 2026-04-26 20:23 | 34.04876 | -99.74154 | 34746 ft | 512 kts | 114° |
| 2026-04-26 20:23 | 34.02416 | -99.66101 | 34754 ft | 512 kts | 114° |
| 2026-04-26 20:24 | 33.99942 | -99.58030 | 34747 ft | 512 kts | 114° |
| 2026-04-26 20:24 | 33.97481 | -99.50029 | 34743 ft | 512 kts | 114° |
| 2026-04-26 20:25 | 33.94979 | -99.41954 | 34745 ft | 513 kts | 114° |
| 2026-04-26 20:25 | 33.92482 | -99.33930 | 34738 ft | 513 kts | 115° |
| 2026-04-26 20:26 | 33.89975 | -99.25903 | 34738 ft | 514 kts | 115° |
| 2026-04-26 20:26 | 33.87452 | -99.17836 | 34731 ft | 514 kts | 115° |
| 2026-04-26 20:26 | 33.86196 | -99.13821 | 34400 ft | 513 kts | 115° |
| 2026-04-26 20:27 | 33.84936 | -99.09810 | 33423 ft | 520 kts | 115° |
| 2026-04-26 20:27 | 33.83663 | -99.05770 | 32449 ft | 526 kts | 115° |
| 2026-04-26 20:27 | 33.82363 | -99.01639 | 31664 ft | 526 kts | 115° |
| 2026-04-26 20:27 | 33.81092 | -98.97598 | 30985 ft | 524 kts | 114° |
| 2026-04-26 20:28 | 33.79800 | -98.93497 | 30272 ft | 522 kts | 114° |
| 2026-04-26 20:28 | 33.78523 | -98.89451 | 29536 ft | 520 kts | 115° |
| 2026-04-26 20:28 | 33.77243 | -98.85400 | 28777 ft | 518 kts | 114° |
| 2026-04-26 20:28 | 33.75969 | -98.81387 | 28146 ft | 513 kts | 114° |
| 2026-04-26 20:29 | 33.74711 | -98.77421 | 27611 ft | 507 kts | 114° |
| 2026-04-26 20:29 | 33.73461 | -98.73489 | 27015 ft | 501 kts | 114° |
| 2026-04-26 20:29 | 33.72236 | -98.69660 | 26260 ft | 493 kts | 114° |
| 2026-04-26 20:29 | 33.71018 | -98.65865 | 25377 ft | 487 kts | 113° |
| 2026-04-26 20:30 | 33.69800 | -98.62081 | 24717 ft | 480 kts | 113° |
| 2026-04-26 20:30 | 33.68618 | -98.58390 | 24125 ft | 475 kts | 113° |
| 2026-04-26 20:30 | 33.67461 | -98.54737 | 23571 ft | 469 kts | 112° |
| 2026-04-26 20:30 | 33.66311 | -98.51097 | 23041 ft | 464 kts | 112° |
| 2026-04-26 20:31 | 33.65181 | -98.47523 | 22528 ft | 459 kts | 112° |
| 2026-04-26 20:31 | 33.64049 | -98.43948 | 22022 ft | 454 kts | 112° |
| 2026-04-26 20:31 | 33.62938 | -98.40445 | 21511 ft | 450 kts | 112° |
| 2026-04-26 20:31 | 33.61831 | -98.36965 | 21004 ft | 446 kts | 113° |
| 2026-04-26 20:32 | 33.60739 | -98.33542 | 20521 ft | 441 kts | 113° |
| 2026-04-26 20:32 | 33.59651 | -98.30128 | 20010 ft | 438 kts | 114° |
| 2026-04-26 20:32 | 33.58569 | -98.26735 | 19492 ft | 434 kts | 114° |
| 2026-04-26 20:32 | 33.57494 | -98.23377 | 19002 ft | 431 kts | 114° |
| 2026-04-26 20:33 | 33.56422 | -98.20031 | 18482 ft | 428 kts | 113° |
| 2026-04-26 20:33 | 33.55350 | -98.16696 | 17971 ft | 425 kts | 114° |
| 2026-04-26 20:33 | 33.54311 | -98.13464 | 17755 ft | 415 kts | 114° |
| 2026-04-26 20:33 | 33.53270 | -98.10238 | 17699 ft | 412 kts | 114° |
| 2026-04-26 20:34 | 33.52246 | -98.07072 | 17131 ft | 415 kts | 114° |
| 2026-04-26 20:34 | 33.51199 | -98.03832 | 16289 ft | 421 kts | 114° |
| 2026-04-26 20:34 | 33.50155 | -98.00602 | 15564 ft | 416 kts | 114° |
| 2026-04-26 20:34 | 33.49111 | -97.97375 | 14977 ft | 410 kts | 114° |
| 2026-04-26 20:35 | 33.48101 | -97.94257 | 14695 ft | 392 kts | 114° |
| 2026-04-26 20:35 | 33.47144 | -97.91296 | 14482 ft | 376 kts | 114° |
| 2026-04-26 20:35 | 33.46207 | -97.88383 | 14051 ft | 373 kts | 114° |
| 2026-04-26 20:35 | 33.45286 | -97.85520 | 13617 ft | 372 kts | 114° |
| 2026-04-26 20:36 | 33.44364 | -97.82658 | 13182 ft | 370 kts | 114° |
| 2026-04-26 20:36 | 33.43431 | -97.79761 | 12745 ft | 368 kts | 114° |
| 2026-04-26 20:36 | 33.42525 | -97.76953 | 12312 ft | 367 kts | 114° |
| 2026-04-26 20:36 | 33.41611 | -97.74120 | 11928 ft | 362 kts | 114° |
| 2026-04-26 20:37 | 33.40714 | -97.71339 | 11513 ft | 354 kts | 114° |
| 2026-04-26 20:37 | 33.39830 | -97.68604 | 11168 ft | 350 kts | 114° |
| 2026-04-26 20:37 | 33.38962 | -97.65938 | 10968 ft | 339 kts | 116° |
| 2026-04-26 20:37 | 33.37931 | -97.63481 | 10842 ft | 321 kts | 125° |
| 2026-04-26 20:38 | 33.36688 | -97.61279 | 10478 ft | 318 kts | 130° |
| 2026-04-26 20:38 | 33.35379 | -97.59174 | 10096 ft | 317 kts | 131° |
| 2026-04-26 20:38 | 33.34063 | -97.57084 | 9726 ft | 316 kts | 131° |
| 2026-04-26 20:38 | 33.32743 | -97.54971 | 9348 ft | 312 kts | 131° |
| 2026-04-26 20:39 | 33.31465 | -97.52911 | 8981 ft | 305 kts | 130° |
| 2026-04-26 20:39 | 33.30637 | -97.51569 | 8741 ft | 301 kts | 131° |
| 2026-04-26 20:39 | 33.29011 | -97.48935 | 8268 ft | 295 kts | 130° |
| 2026-04-26 20:39 | 33.27819 | -97.46923 | 7896 ft | 297 kts | 123° |
| 2026-04-26 20:40 | 33.27099 | -97.44596 | 7522 ft | 304 kts | 103° |
| 2026-04-26 20:40 | 33.26900 | -97.42091 | 7167 ft | 304 kts | 96° |
| 2026-04-26 20:40 | 33.26806 | -97.39611 | 6806 ft | 299 kts | 95° |
| 2026-04-26 20:40 | 33.26717 | -97.37161 | 6452 ft | 293 kts | 95° |
| 2026-04-26 20:41 | 33.26614 | -97.34728 | 6098 ft | 290 kts | 96° |
| 2026-04-26 20:41 | 33.26500 | -97.32330 | 5746 ft | 290 kts | 97° |
| 2026-04-26 20:41 | 33.26379 | -97.29948 | 5396 ft | 290 kts | 97° |
| 2026-04-26 20:41 | 33.26254 | -97.27580 | 5150 ft | 284 kts | 97° |
| 2026-04-26 20:42 | 33.26130 | -97.25254 | 4982 ft | 276 kts | 98° |
| 2026-04-26 20:42 | 33.25668 | -97.23067 | 4933 ft | 271 kts | 122° |
| 2026-04-26 20:42 | 33.24657 | -97.21215 | 4767 ft | 262 kts | 130° |
| 2026-04-26 20:42 | 33.23562 | -97.19520 | 4616 ft | 253 kts | 132° |
| 2026-04-26 20:43 | 33.22489 | -97.17905 | 4445 ft | 246 kts | 133° |
| 2026-04-26 20:43 | 33.21428 | -97.16311 | 4180 ft | 243 kts | 133° |
| 2026-04-26 20:43 | 33.20379 | -97.14736 | 3986 ft | 237 kts | 133° |
| 2026-04-26 20:43 | 33.19392 | -97.13247 | 3968 ft | 224 kts | 133° |
| 2026-04-26 20:44 | 33.18436 | -97.11802 | 3970 ft | 221 kts | 133° |
| 2026-04-26 20:44 | 33.17503 | -97.10387 | 3959 ft | 210 kts | 133° |
| 2026-04-26 20:44 | 33.16605 | -97.09022 | 3968 ft | 208 kts | 133° |
| 2026-04-26 20:44 | 33.15713 | -97.07663 | 3973 ft | 208 kts | 133° |
| 2026-04-26 20:45 | 33.14654 | -97.06538 | 3963 ft | 202 kts | 155° |
| 2026-04-26 20:45 | 33.13385 | -97.05888 | 3978 ft | 199 kts | 165° |
| 2026-04-26 20:45 | 33.12024 | -97.05518 | 3978 ft | 198 kts | 174° |
| 2026-04-26 20:45 | 33.10694 | -97.05396 | 4096 ft | 189 kts | 179° |
| 2026-04-26 20:46 | 33.09385 | -97.05371 | 3913 ft | 188 kts | 181° |
| 2026-04-26 20:46 | 33.08077 | -97.05375 | 3672 ft | 186 kts | 181° |
| 2026-04-26 20:46 | 33.06808 | -97.05383 | 3434 ft | 180 kts | 181° |
| 2026-04-26 20:46 | 33.05572 | -97.05392 | 3203 ft | 173 kts | 181° |
| 2026-04-26 20:47 | 33.04380 | -97.05399 | 2981 ft | 167 kts | 181° |
| 2026-04-26 20:47 | 33.03997 | -97.05400 | 2908 ft | 164 kts | 181° |
| 2026-04-26 20:47 | 33.02163 | -97.05410 | 2566 ft | 152 kts | 181° |
| 2026-04-26 20:47 | 33.01127 | -97.05416 | 2383 ft | 147 kts | 181° |
| 2026-04-26 20:48 | 33.00153 | -97.05421 | 2220 ft | 133 kts | 181° |
| 2026-04-26 20:48 | 32.99234 | -97.05425 | 2044 ft | 128 kts | 181° |
| 2026-04-26 20:48 | 32.98354 | -97.05430 | 1888 ft | 127 kts | 181° |
| 2026-04-26 20:48 | 32.97477 | -97.05434 | 1735 ft | 126 kts | 181° |
| 2026-04-26 20:49 | 32.96589 | -97.05439 | 1570 ft | 126 kts | 180° |
| 2026-04-26 20:49 | 32.95715 | -97.05444 | 1404 ft | 125 kts | 180° |
| 2026-04-26 20:49 | 32.94838 | -97.05448 | 1244 ft | 125 kts | 180° |
| 2026-04-26 20:49 | 32.93968 | -97.05450 | 1092 ft | 125 kts | 180° |
| 2026-04-26 20:50 | 32.93083 | -97.05452 | 921 ft | 127 kts | 180° |
| 2026-04-26 20:50 | 32.92212 | -97.05463 | 756 ft | 126 kts | 179° |
| 2026-04-26 20:50 | 32.91329 | -97.05466 | 614 ft | 123 kts | 180° |
| 2026-04-26 20:50 | 32.90585 | -97.05469 | 616 ft | 86 kts | 180° |
| 2026-04-26 20:51 | 32.90145 | -97.05469 | 617 ft | 34 kts | 175° |
| 2026-04-26 20:51 | 32.89961 | -97.05413 | 613 ft | 23 kts | 154° |
| 2026-04-26 20:51 | 32.89857 | -97.05344 | 611 ft | 13 kts | 150° |
| 2026-04-26 20:51 | 32.89787 | -97.05297 | 609 ft | 9 kts | 151° |
| 2026-04-26 20:52 | 32.89753 | -97.05266 | 608 ft | 4 kts | 168° |
| 2026-04-26 20:52 | 32.89714 | -97.05270 | 607 ft | 6 kts | 191° |
| 2026-04-26 20:52 | 32.89665 | -97.05279 | 607 ft | 7 kts | 182° |
| 2026-04-26 20:52 | 32.89600 | -97.05280 | 605 ft | 11 kts | 180° |
| 2026-04-26 20:53 | 32.89538 | -97.05280 | 603 ft | 15 kts | 180° |
| 2026-04-26 20:53 | 32.89417 | -97.05274 | 599 ft | 8 kts | 144° |
| 2026-04-26 20:53 | 32.89402 | -97.05199 | 598 ft | 9 kts | 91° |
| 2026-04-26 20:53 | 32.89400 | -97.05118 | 598 ft | 9 kts | 91° |
| 2026-04-26 20:54 | 32.89401 | -97.05051 | 597 ft | 6 kts | 89° |
| 2026-04-26 20:54 | 32.89401 | -97.05024 | 597 ft | 1 kts | 90° |
| 2026-04-26 20:54 | 32.89401 | -97.05015 | 597 ft | 0 kts | 90° |
| 2026-04-26 20:54 | 32.89401 | -97.05003 | 596 ft | 0 kts | 90° |
| 2026-04-26 20:55 | 32.89401 | -97.04977 | 596 ft | 8 kts | 91° |
| 2026-04-26 20:55 | 32.89400 | -97.04864 | 596 ft | 14 kts | 90° |
| 2026-04-26 20:56 | 32.89400 | -97.04804 | 596 ft | 8 kts | 88° |
| 2026-04-26 20:56 | 32.89462 | -97.04768 | 596 ft | 8 kts | 0° |
| 2026-04-26 20:56 | 32.89545 | -97.04767 | 598 ft | 15 kts | 0° |
| 2026-04-26 20:56 | 32.89671 | -97.04767 | 601 ft | 17 kts | 0° |
| 2026-04-26 20:57 | 32.89790 | -97.04766 | 603 ft | 16 kts | 0° |
| 2026-04-26 20:57 | 32.89903 | -97.04765 | 604 ft | 15 kts | 0° |
| 2026-04-26 20:57 | 32.90006 | -97.04765 | 606 ft | 14 kts | 0° |
| 2026-04-26 20:57 | 32.90106 | -97.04765 | 606 ft | 14 kts | 1° |
| 2026-04-26 20:58 | 32.90208 | -97.04763 | 606 ft | 14 kts | 360° |
| 2026-04-26 20:58 | 32.90276 | -97.04763 | 606 ft | 14 kts | 0° |
| 2026-04-26 20:58 | 32.90334 | -97.04702 | 605 ft | 10 kts | 89° |
| 2026-04-26 20:58 | 32.90334 | -97.04626 | 604 ft | 5 kts | 91° |
| 2026-04-26 20:59 | 32.90342 | -97.04575 | 602 ft | 5 kts | 67° |
| 2026-04-26 20:59 | 32.90347 | -97.04557 | 602 ft | 0 kts | 71° |
| 2026-04-26 20:59 | 32.90351 | -97.04546 | 602 ft | 0 kts | 71° |